Time;durP1;ratioP1;P1;durP2;ratioP2;P2;SDS_P1;SDS_P2;PMS_P1;PMS_P2;Temp;Humidity;BMP_temperature;BMP_pressure;BME280_temperature;BME280_humidity;BME280_pressure;Samples;Min_cycle;Max_cycle;Signal;HPM_P1;HPM_P2
2021/04/18 00:00:24;;;;;;;41.70;31.55;;;231.20;1996.80;;;;;;5094786;28;20425;-66
2021/04/18 00:02:51;;;;;;;35.67;28.92;;;231.20;1996.80;;;;;;5094266;28;20527;-66
2021/04/18 00:05:21;;;;;;;34.40;27.40;;;231.20;1996.80;;;;;;5093522;28;20492;-66
2021/04/18 00:07:47;;;;;;;33.72;26.52;;;231.20;1996.80;;;;;;5094240;28;20474;-65
2021/04/18 00:10:13;;;;;;;35.38;26.15;;;231.30;1996.80;;;;;;5094635;28;20432;-63
2021/04/18 00:12:39;;;;;;;34.55;26.65;;;231.30;1996.80;;;;;;5093575;28;20020;-66
2021/04/18 00:15:11;;;;;;;37.05;28.50;;;231.30;1996.80;;;;;;5093121;28;20035;-62
2021/04/18 00:17:37;;;;;;;32.83;25.55;;;231.30;1996.80;;;;;;5093712;28;20020;-65
2021/04/18 00:20:06;;;;;;;31.35;25.23;;;231.30;1971.20;;;;;;5093735;28;20040;-62
2021/04/18 00:22:32;;;;;;;33.10;25.80;;;231.30;1971.20;;;;;;5091607;28;20016;-65
2021/04/18 00:24:58;;;;;;;33.55;26.38;;;231.30;1971.20;;;;;;5093830;28;20053;-62
2021/04/18 00:27:24;;;;;;;34.20;25.23;;;256.00;1971.20;;;;;;5094466;28;20020;-68
2021/04/18 00:29:49;;;;;;;31.48;24.80;;;256.00;1971.20;;;;;;5094467;28;20028;-68
2021/04/18 00:32:15;;;;;;;32.95;24.75;;;256.00;1971.20;;;;;;5093260;28;20457;-68
2021/04/18 00:34:41;;;;;;;34.78;24.00;;;256.00;1971.20;;;;;;5093989;28;20024;-67
2021/04/18 00:37:06;;;;;;;32.67;25.52;;;256.00;1971.20;;;;;;5092249;28;20377;-67
2021/04/18 00:39:32;;;;;;;32.70;25.02;;;231.30;1971.20;;;;;;5094143;28;20469;-67
2021/04/18 00:41:58;;;;;;;35.97;24.88;;;231.30;1971.20;;;;;;5093593;28;20120;-66
2021/04/18 00:44:23;;;;;;;35.72;24.00;;;231.30;1971.20;;;;;;5093965;28;20101;-63
2021/04/18 00:46:49;;;;;;;37.28;26.90;;;231.30;1971.20;;;;;;5093792;28;20020;-68
2021/04/18 00:49:15;;;;;;;35.78;26.45;;;231.30;1971.20;;;;;;5093251;28;20020;-66
2021/04/18 00:51:40;;;;;;;39.92;27.00;;;231.30;1971.20;;;;;;5093473;28;20027;-66
2021/04/18 00:54:06;;;;;;;34.83;25.83;;;231.30;1971.20;;;;;;5093635;28;20461;-66
2021/04/18 00:56:32;;;;;;;32.05;25.10;;;231.30;1971.20;;;;;;5093630;28;20020;-67
2021/04/18 00:58:58;;;;;;;33.30;24.23;;;231.30;1996.80;;;;;;5093761;28;20074;-66
2021/04/18 01:01:23;;;;;;;32.28;24.15;;;231.30;1971.20;;;;;;5093403;28;20028;-68
2021/04/18 01:03:49;;;;;;;33.42;24.52;;;231.30;1971.20;;;;;;5093429;28;20027;-67
2021/04/18 01:06:15;;;;;;;30.35;23.50;;;231.30;1971.20;;;;;;5092913;28;20039;-66
2021/04/18 01:08:41;;;;;;;31.90;23.63;;;256.00;1971.20;;;;;;5093613;28;20032;-65
2021/04/18 01:11:07;;;;;;;28.95;22.95;;;256.00;1971.20;;;;;;5093465;28;20024;-67
2021/04/18 01:13:33;;;;;;;27.10;21.95;;;256.00;1971.20;;;;;;5093219;28;20020;-66
2021/04/18 01:15:59;;;;;;;27.73;22.58;;;256.00;1971.20;;;;;;5092854;28;20100;-63
2021/04/18 01:18:25;;;;;;;27.08;21.85;;;256.00;1971.20;;;;;;5093084;28;20486;-64
2021/04/18 01:21:09;;;;;;;28.10;22.33;;;256.00;1971.20;;;;;;5093027;28;20413;-63
2021/04/18 01:23:35;;;;;;;25.55;20.98;;;256.00;1971.20;;;;;;5090178;28;20028;-63
2021/04/18 01:26:01;;;;;;;27.92;21.75;;;256.00;1971.20;;;;;;5090798;28;20028;-62
2021/04/18 01:28:27;;;;;;;27.27;21.20;;;256.00;1971.20;;;;;;5092959;28;20378;-66
2021/04/18 01:30:53;;;;;;;26.45;21.02;;;256.00;1971.20;;;;;;5093079;28;20101;-61
2021/04/18 01:33:19;;;;;;;25.25;20.60;;;231.30;1971.20;;;;;;5093233;28;20020;-63
2021/04/18 01:35:47;;;;;;;24.50;20.33;;;231.30;1971.20;;;;;;5093813;28;20032;-63
2021/04/18 01:38:15;;;;;;;28.55;21.70;;;231.30;1971.20;;;;;;5093597;28;20062;-62
2021/04/18 01:40:42;;;;;;;27.23;21.40;;;231.30;1971.20;;;;;;5093627;28;20032;-66
2021/04/18 01:43:12;;;;;;;27.95;21.77;;;231.30;1971.20;;;;;;5093611;28;20441;-69
2021/04/18 01:45:38;;;;;;;26.60;21.58;;;231.30;1971.20;;;;;;5093860;28;20024;-63
2021/04/18 01:48:04;;;;;;;27.95;21.80;;;231.30;1971.20;;;;;;5093714;28;20470;-68
2021/04/18 01:50:32;;;;;;;27.08;21.08;;;231.20;1996.80;;;;;;5093717;28;20035;-68
2021/04/18 01:52:58;;;;;;;28.45;22.65;;;231.30;1971.20;;;;;;5093563;28;20036;-68
2021/04/18 01:55:24;;;;;;;28.98;23.75;;;231.20;1996.80;;;;;;5093233;28;20052;-68
2021/04/18 01:57:50;;;;;;;27.88;22.35;;;231.20;1996.80;;;;;;5093569;28;20374;-68
2021/04/18 02:00:16;;;;;;;29.13;22.80;;;231.20;1996.80;;;;;;5093504;28;20027;-69
2021/04/18 02:02:42;;;;;;;31.27;23.42;;;231.20;1996.80;;;;;;5093017;28;20020;-68
2021/04/18 02:05:09;;;;;;;29.58;22.63;;;231.30;1996.80;;;;;;5093417;28;20028;-69
2021/04/18 02:07:34;;;;;;;31.35;24.77;;;231.20;1971.20;;;;;;5093542;28;20100;-62
2021/04/18 02:10:00;;;;;;;31.45;25.20;;;231.30;1996.80;;;;;;5093497;28;20169;-62
2021/04/18 02:12:26;;;;;;;29.85;23.27;;;231.30;1996.80;;;;;;5093312;28;20031;-63
2021/04/18 02:14:52;;;;;;;32.22;24.90;;;231.20;1996.80;;;;;;5093397;28;20028;-66
2021/04/18 02:17:17;;;;;;;33.35;24.48;;;231.20;1996.80;;;;;;5093499;28;20470;-63
2021/04/18 02:19:43;;;;;;;28.83;23.00;;;231.20;1996.80;;;;;;5093117;28;20026;-68
2021/04/18 02:22:09;;;;;;;30.20;23.30;;;231.20;1996.80;;;;;;5093195;28;20085;-69
2021/04/18 02:24:35;;;;;;;33.22;25.50;;;231.20;1996.80;;;;;;5093006;28;20046;-69
2021/04/18 02:27:00;;;;;;;29.00;24.17;;;231.20;1996.80;;;;;;5093311;28;20036;-69
2021/04/18 02:29:26;;;;;;;31.20;23.73;;;231.20;1996.80;;;;;;5096351;28;20024;-68
2021/04/18 02:31:52;;;;;;;27.48;22.55;;;231.20;1996.80;;;;;;5097074;28;20055;-68
2021/04/18 02:34:17;;;;;;;28.45;22.25;;;231.30;1971.20;;;;;;5097162;28;20028;-68
2021/04/18 02:36:43;;;;;;;29.55;23.30;;;231.20;1996.80;;;;;;5097206;28;20077;-69
2021/04/18 02:39:09;;;;;;;26.33;21.52;;;231.20;1996.80;;;;;;5096916;28;20481;-63
2021/04/18 02:41:37;;;;;;;27.50;22.80;;;231.20;1996.80;;;;;;5096567;28;20366;-67
2021/04/18 02:44:03;;;;;;;28.83;22.85;;;231.20;1996.80;;;;;;5096119;28;20078;-68
2021/04/18 02:46:29;;;;;;;31.15;23.70;;;231.20;1996.80;;;;;;5096998;28;20028;-68
2021/04/18 02:48:54;;;;;;;30.80;24.73;;;231.20;1996.80;;;;;;5096613;28;20053;-69
2021/04/18 02:51:20;;;;;;;27.88;23.30;;;231.20;1996.80;;;;;;5097113;28;20121;-69
2021/04/18 02:53:46;;;;;;;29.92;23.58;;;231.20;1996.80;;;;;;5096453;28;20039;-68
2021/04/18 02:56:12;;;;;;;28.42;23.27;;;231.20;1996.80;;;;;;5096384;28;20346;-67
2021/04/18 02:58:37;;;;;;;30.30;23.55;;;231.20;1996.80;;;;;;5096215;28;20043;-64
2021/04/18 03:01:04;;;;;;;29.13;23.30;;;231.20;1996.80;;;;;;5096135;28;20496;-63
2021/04/18 03:03:29;;;;;;;30.50;23.83;;;231.20;1996.80;;;;;;5096362;28;20073;-61
2021/04/18 03:05:55;;;;;;;32.58;24.20;;;231.20;1996.80;;;;;;5096222;28;20028;-63
2021/04/18 03:08:21;;;;;;;86.78;42.20;;;231.20;1996.80;;;;;;5096169;28;20431;-62
2021/04/18 03:10:46;;;;;;;112.07;49.20;;;231.20;1996.80;;;;;;5096324;28;20032;-65
2021/04/18 03:13:12;;;;;;;149.30;60.72;;;231.20;1996.80;;;;;;5095840;28;20124;-63
2021/04/18 03:15:38;;;;;;;105.75;51.45;;;231.20;1996.80;;;;;;5095909;28;20020;-61
2021/04/18 03:18:04;;;;;;;105.65;51.90;;;231.20;1996.80;;;;;;5096060;28;20030;-64
2021/04/18 03:20:30;;;;;;;101.25;51.63;;;231.20;1996.80;;;;;;5095558;28;20121;-63
2021/04/18 03:22:56;;;;;;;128.23;68.40;;;231.20;1996.80;;;;;;5096004;28;20028;-63
2021/04/18 03:25:22;;;;;;;112.68;57.90;;;231.20;1971.20;;;;;;5095992;28;20024;-67
2021/04/18 03:27:48;;;;;;;86.18;49.08;;;231.20;1971.20;;;;;;5095801;28;20138;-62
2021/04/18 03:30:14;;;;;;;125.35;56.63;;;231.10;1996.80;;;;;;5095617;28;20099;-68
2021/04/18 03:32:40;;;;;;;99.93;48.20;;;231.20;1996.80;;;;;;5096089;28;20451;-67
2021/04/18 03:35:07;;;;;;;90.72;45.70;;;231.10;1996.80;;;;;;5095738;28;20126;-64
2021/04/18 03:37:33;;;;;;;77.40;42.28;;;231.10;1996.80;;;;;;5095613;28;20020;-63
2021/04/18 03:39:58;;;;;;;66.45;39.08;;;231.00;1996.80;;;;;;5095605;28;20020;-63
2021/04/18 03:42:24;;;;;;;57.20;36.35;;;231.10;1996.80;;;;;;5095275;28;20051;-63
2021/04/18 03:44:50;;;;;;;54.45;34.50;;;231.00;1996.80;;;;;;5095446;28;20052;-63
2021/04/18 03:47:15;;;;;;;57.70;36.42;;;231.00;1996.80;;;;;;5095223;28;20050;-63
2021/04/18 03:49:41;;;;;;;57.03;36.25;;;231.00;1996.80;;;;;;5095536;28;20108;-62
2021/04/18 03:52:08;;;;;;;57.95;36.53;;;231.00;1996.80;;;;;;5095217;28;20047;-62
2021/04/18 03:54:33;;;;;;;58.90;35.55;;;231.00;1996.80;;;;;;5095216;28;20039;-63
2021/04/18 03:56:59;;;;;;;58.65;36.83;;;231.00;1996.80;;;;;;5095241;28;20024;-62
2021/04/18 03:59:25;;;;;;;58.17;36.35;;;231.00;1996.80;;;;;;5095149;28;20034;-63
2021/04/18 04:01:50;;;;;;;54.00;36.40;;;231.10;1996.80;;;;;;5095296;28;20035;-63
2021/04/18 04:04:16;;;;;;;54.95;36.65;;;231.10;1996.80;;;;;;5095105;28;20028;-62
2021/04/18 04:06:42;;;;;;;52.53;35.63;;;231.10;1996.80;;;;;;5095192;28;20099;-62
2021/04/18 04:09:07;;;;;;;50.90;34.08;;;231.10;1996.80;;;;;;5094974;28;20024;-63
2021/04/18 04:11:33;;;;;;;46.42;33.92;;;231.10;1996.80;;;;;;5094488;28;20028;-62
2021/04/18 04:13:59;;;;;;;53.75;32.08;;;231.00;1996.80;;;;;;5094808;28;20024;-61
2021/04/18 04:16:25;;;;;;;45.05;30.05;;;231.10;2022.40;;;;;;5094954;28;20020;-63
2021/04/18 04:18:51;;;;;;;41.60;31.42;;;231.20;2048.00;;;;;;5094987;28;20032;-63
2021/04/18 04:21:16;;;;;;;45.25;32.58;;;231.10;2022.40;;;;;;5094600;28;20048;-63
2021/04/18 04:23:42;;;;;;;46.97;33.53;;;231.10;1996.80;;;;;;5094643;28;20385;-63
2021/04/18 04:26:08;;;;;;;44.92;31.02;;;231.10;1996.80;;;;;;5094825;28;20027;-63
2021/04/18 04:28:34;;;;;;;47.28;34.10;;;231.10;1996.80;;;;;;5094586;28;20020;-63
2021/04/18 04:31:00;;;;;;;50.05;35.58;;;231.10;1996.80;;;;;;5094517;28;20051;-63
2021/04/18 04:33:26;;;;;;;45.75;34.72;;;231.10;2022.40;;;;;;5094683;28;20107;-63
2021/04/18 04:35:51;;;;;;;48.05;34.95;;;231.10;1996.80;;;;;;5094450;28;20457;-62
2021/04/18 04:38:17;;;;;;;59.40;39.35;;;231.10;1996.80;;;;;;5094461;28;20111;-63
2021/04/18 04:40:43;;;;;;;63.90;40.50;;;231.10;1996.80;;;;;;5094431;28;20028;-62
2021/04/18 04:43:09;;;;;;;60.03;39.30;;;231.10;2022.40;;;;;;5094406;28;20466;-63
2021/04/18 04:45:34;;;;;;;52.17;36.20;;;231.10;1996.80;;;;;;5094959;28;20050;-69
2021/04/18 04:48:00;;;;;;;49.35;32.53;;;231.10;1996.80;;;;;;5094473;28;20032;-67
2021/04/18 04:50:26;;;;;;;40.17;30.17;;;231.10;1996.80;;;;;;5093990;28;20453;-68
2021/04/18 04:52:53;;;;;;;38.63;30.30;;;231.10;2022.40;;;;;;5094348;28;20028;-68
2021/04/18 04:55:18;;;;;;;42.45;31.67;;;231.10;1996.80;;;;;;5094219;28;20027;-68
2021/04/18 04:57:44;;;;;;;38.47;29.70;;;231.10;2022.40;;;;;;5094191;28;20020;-68
2021/04/18 05:00:10;;;;;;;41.17;31.30;;;231.10;2022.40;;;;;;5094081;28;20051;-69
2021/04/18 05:02:36;;;;;;;38.88;30.50;;;231.00;2022.40;;;;;;5094005;28;20067;-68
2021/04/18 05:05:02;;;;;;;38.95;30.90;;;231.00;2022.40;;;;;;5094219;28;20051;-68
2021/04/18 05:07:28;;;;;;;40.95;31.85;;;231.00;2022.40;;;;;;5093680;28;20039;-68
2021/04/18 05:09:55;;;;;;;39.40;30.95;;;231.00;2022.40;;;;;;5094068;28;20099;-68
2021/04/18 05:12:20;;;;;;;41.63;31.65;;;231.00;2022.40;;;;;;5094011;28;20028;-69
2021/04/18 05:14:46;;;;;;;43.65;31.48;;;231.00;2048.00;;;;;;5093917;28;20020;-69
2021/04/18 05:17:12;;;;;;;52.50;32.38;;;231.00;2022.40;;;;;;5093907;28;20032;-66
2021/04/18 05:19:37;;;;;;;52.30;33.97;;;231.00;2022.40;;;;;;5093888;28;20024;-68
2021/04/18 05:22:03;;;;;;;49.03;33.35;;;231.00;2022.40;;;;;;5093851;28;20086;-68
2021/04/18 05:24:29;;;;;;;50.67;35.17;;;231.00;2022.40;;;;;;5093827;28;20024;-69
2021/04/18 05:26:55;;;;;;;48.10;35.20;;;231.00;2022.40;;;;;;5093938;28;20047;-67
2021/04/18 05:29:22;;;;;;;48.03;33.13;;;231.00;2022.40;;;;;;5093746;28;20039;-68
2021/04/18 05:31:48;;;;;;;45.60;32.83;;;231.10;2022.40;;;;;;5093625;28;20020;-64
2021/04/18 05:34:14;;;;;;;44.75;32.13;;;231.10;2022.40;;;;;;5093891;28;20093;-63
2021/04/18 05:36:39;;;;;;;44.53;32.33;;;231.10;2022.40;;;;;;5093659;28;20077;-66
2021/04/18 05:39:09;;;;;;;47.60;32.25;;;231.10;2022.40;;;;;;5093607;28;20504;-63
2021/04/18 05:41:38;;;;;;;46.78;34.42;;;231.10;2022.40;;;;;;5093759;28;20113;-63
2021/04/18 05:44:13;;;;;;;43.78;31.58;;;231.10;2022.40;;;;;;5093475;28;20358;-66
2021/04/18 05:46:43;;;;;;;49.40;34.70;;;231.10;2022.40;;;;;;5093814;28;20440;-63
2021/04/18 05:49:09;;;;;;;57.03;38.15;;;231.10;2022.40;;;;;;5093756;28;20035;-64
2021/04/18 05:51:36;;;;;;;44.85;32.42;;;231.20;2022.40;;;;;;5093853;28;20058;-63
2021/04/18 05:54:02;;;;;;;43.63;31.63;;;231.10;2022.40;;;;;;5093441;28;20028;-64
2021/04/18 05:56:28;;;;;;;41.25;29.58;;;231.10;2022.40;;;;;;5093635;28;20044;-63
2021/04/18 05:58:54;;;;;;;40.33;29.83;;;231.20;2022.40;;;;;;5093513;28;20052;-68
2021/04/18 06:01:23;;;;;;;40.10;30.58;;;231.20;2022.40;;;;;;5093467;28;20062;-68
2021/04/18 06:03:50;;;;;;;42.05;31.40;;;231.20;2022.40;;;;;;5095695;28;20024;-68
2021/04/18 06:06:16;;;;;;;40.83;29.77;;;231.20;2048.00;;;;;;5096908;28;20035;-68
2021/04/18 06:08:42;;;;;;;43.28;30.33;;;231.20;2022.40;;;;;;5097692;28;20024;-68
2021/04/18 06:11:08;;;;;;;37.55;28.73;;;231.30;2022.40;;;;;;5097383;28;20390;-68
2021/04/18 06:13:34;;;;;;;40.03;29.77;;;256.00;2022.40;;;;;;5097068;28;20044;-68
2021/04/18 06:16:00;;;;;;;43.45;32.13;;;256.00;2022.40;;;;;;5097226;28;20034;-69
2021/04/18 06:18:26;;;;;;;43.30;31.77;;;256.00;2022.40;;;;;;5097009;28;20467;-64
2021/04/18 06:20:52;;;;;;;40.97;30.58;;;256.00;2022.40;;;;;;5096866;28;20052;-68
2021/04/18 06:23:18;;;;;;;40.13;29.63;;;256.10;2022.40;;;;;;5097104;28;20370;-68
2021/04/18 06:25:43;;;;;;;40.92;28.38;;;256.10;2022.40;;;;;;5097066;28;20024;-68
2021/04/18 06:28:09;;;;;;;38.47;28.08;;;256.10;2022.40;;;;;;5096746;28;20351;-68
2021/04/18 06:30:35;;;;;;;40.08;29.65;;;256.20;2022.40;;;;;;5097303;28;20017;-68
2021/04/18 06:33:00;;;;;;;41.08;30.15;;;256.20;2022.40;;;;;;5097044;28;20028;-68
2021/04/18 06:35:26;;;;;;;41.33;29.95;;;256.30;2022.40;;;;;;5097199;28;20462;-68
2021/04/18 06:37:52;;;;;;;41.90;30.92;;;256.30;2022.40;;;;;;5096711;28;20032;-65
2021/04/18 06:40:18;;;;;;;41.20;30.38;;;256.30;2022.40;;;;;;5096943;28;20031;-68
2021/04/18 06:42:45;;;;;;;45.15;34.38;;;256.30;2022.40;;;;;;5097022;28;20032;-68
2021/04/18 06:45:11;;;;;;;40.10;31.02;;;256.30;2022.40;;;;;;5096697;28;20043;-68
2021/04/18 06:47:40;;;;;;;40.97;31.70;;;256.40;2022.40;;;;;;5096983;28;20028;-69
2021/04/18 06:50:07;;;;;;;44.35;32.50;;;256.40;2022.40;;;;;;5096738;28;20434;-66
2021/04/18 06:52:37;;;;;;;63.08;45.40;;;256.50;2048.00;;;;;;5096204;28;20358;-69
2021/04/18 06:55:05;;;;;;;76.90;41.90;;;256.60;2073.60;;;;;;5096517;28;20036;-64
2021/04/18 06:57:32;;;;;;;167.90;35.65;;;256.70;2073.60;;;;;;5096434;28;20093;-69
2021/04/18 06:59:57;;;;;;;59.17;30.50;;;256.80;2048.00;;;;;;5096524;28;20523;-65
2021/04/18 07:02:34;;;;;;;48.47;30.25;;;256.80;2048.00;;;;;;5096287;28;20115;-68
2021/04/18 07:05:03;;;;;;;49.30;32.25;;;256.90;2048.00;;;;;;5096479;28;20020;-66
2021/04/18 07:07:30;;;;;;;55.00;35.58;;;256.90;2048.00;;;;;;5096250;28;20378;-66
2021/04/18 07:09:56;;;;;;;53.13;37.08;;;256.90;2048.00;;;;;;5096391;28;20024;-67
2021/04/18 07:12:31;;;;;;;62.15;40.97;;;256.90;2022.40;;;;;;5095868;28;20024;-65
2021/04/18 07:14:58;;;;;;;65.18;39.90;;;256.90;2022.40;;;;;;5094917;28;20024;-65
2021/04/18 07:17:25;;;;;;;52.92;36.53;;;256.80;2022.40;;;;;;5094409;28;20056;-65
2021/04/18 07:20:12;;;;;;;50.13;34.63;;;256.90;2022.40;;;;;;5094445;28;20480;-65
2021/04/18 07:22:38;;;;;;;43.92;30.55;;;256.90;2022.40;;;;;;5092197;28;20038;-65
2021/04/18 07:25:06;;;;;;;41.42;29.80;;;256.90;2022.40;;;;;;5093708;28;20036;-65
2021/04/18 07:27:49;;;;;;;45.70;29.92;;;281.60;2048.00;;;;;;5094208;28;20032;-65
2021/04/18 07:30:20;;;;;;;50.10;30.65;;;281.70;2048.00;;;;;;5092456;28;20020;-65
2021/04/18 07:32:46;;;;;;;44.67;30.85;;;281.70;2048.00;;;;;;5094105;28;20351;-65
2021/04/18 07:35:50;;;;;;;44.35;30.50;;;281.70;2048.00;;;;;;5093640;28;20047;-65
2021/04/18 07:38:19;;;;;;;38.42;28.95;;;281.80;2048.00;;;;;;5000486;28;20026;-65
2021/04/18 07:40:46;;;;;;;37.22;26.50;;;281.80;2048.00;;;;;;5002073;28;20026;-65
2021/04/18 07:43:12;;;;;;;32.42;23.67;;;281.90;2048.00;;;;;;5002946;28;20048;-65
2021/04/18 07:45:39;;;;;;;30.08;24.38;;;281.90;2022.40;;;;;;4999251;28;20114;-65
2021/04/18 07:48:09;;;;;;;30.48;24.48;;;282.00;2048.00;;;;;;5002334;28;20032;-65
2021/04/18 07:50:35;;;;;;;31.05;24.25;;;282.00;2022.40;;;;;;5003470;28;20149;-65
2021/04/18 07:53:02;;;;;;;33.45;25.52;;;282.00;2022.40;;;;;;5000770;28;20066;-66
2021/04/18 07:55:30;;;;;;;29.65;22.70;;;282.00;2022.40;;;;;;5003329;28;20037;-66
2021/04/18 07:57:56;;;;;;;26.48;21.58;;;282.00;2022.40;;;;;;5012727;28;20021;-66
2021/04/18 08:00:23;;;;;;;26.75;20.58;;;282.10;2022.40;;;;;;5013242;28;20041;-66
2021/04/18 08:02:50;;;;;;;25.17;20.63;;;282.10;2022.40;;;;;;5001794;28;20042;-65
2021/04/18 08:05:17;;;;;;;28.40;23.52;;;282.10;2022.40;;;;;;4993594;28;20034;-65
2021/04/18 08:08:15;;;;;;;31.50;24.85;;;282.20;2022.40;;;;;;4992588;28;20077;-65
2021/04/18 08:10:41;;;;;;;37.08;28.02;;;282.20;2022.40;;;;;;5079315;28;20024;-69
2021/04/18 08:13:21;;;;;;;35.88;26.73;;;282.20;2022.40;;;;;;5094793;28;20060;-61
2021/04/18 08:15:56;;;;;;;35.03;27.02;;;282.20;1996.80;;;;;;5094173;28;20032;-61
2021/04/18 08:18:42;;;;;;;30.92;23.88;;;282.10;1996.80;;;;;;5090661;28;20365;-61
2021/04/18 08:21:37;;;;;;;29.42;23.08;;;282.10;1996.80;;;;;;5091591;28;20512;-61
2021/04/18 08:24:26;;;;;;;27.75;21.95;;;282.10;1996.80;;;;;;5091970;28;20072;-61
2021/04/18 08:27:00;;;;;;;28.33;22.42;;;282.10;1996.80;;;;;;5092360;28;20031;-61
2021/04/18 08:29:27;;;;;;;37.13;27.40;;;282.10;1996.80;;;;;;5093258;28;20032;-62
2021/04/18 08:31:58;;;;;;;44.17;31.65;;;282.10;1996.80;;;;;;5090585;28;20853;-61
2021/04/18 08:34:34;;;;;;;44.92;31.65;;;282.10;2022.40;;;;;;5093040;28;20035;-61
2021/04/18 08:37:01;;;;;;;44.38;30.27;;;282.10;1996.80;;;;;;5091609;28;20016;-61
2021/04/18 08:39:30;;;;;;;45.42;31.88;;;282.10;2022.40;;;;;;5093041;28;20024;-61
2021/04/18 08:41:59;;;;;;;35.38;24.95;;;282.30;2022.40;;;;;;5090091;28;20492;-61
2021/04/18 08:44:37;;;;;;;31.33;22.15;;;282.20;1996.80;;;;;;5090534;28;20028;-61
2021/04/18 08:47:06;;;;;;;26.00;19.10;;;282.30;2022.40;;;;;;5092209;28;20141;-63
2021/04/18 08:49:49;;;;;;;30.38;18.83;;;282.40;2022.40;;;;;;5092726;28;20024;-63
2021/04/18 08:52:25;;;;;;;24.92;18.58;;;282.40;1996.80;;;;;;5088898;28;20504;-62
2021/04/18 08:54:52;;;;;;;25.92;18.98;;;282.50;1996.80;;;;;;5091120;28;20036;-61
2021/04/18 08:57:22;;;;;;;23.85;18.23;;;307.20;1996.80;;;;;;5091534;28;20053;-61
2021/04/18 08:59:55;;;;;;;40.65;28.48;;;307.20;1996.80;;;;;;5091550;28;20031;-63
2021/04/18 09:02:21;;;;;;;28.02;19.52;;;307.30;1996.80;;;;;;5090134;28;20255;-62
2021/04/18 09:04:49;;;;;;;29.17;21.17;;;307.30;1996.80;;;;;;5091290;28;20064;-62
2021/04/18 09:07:27;;;;;;;31.45;21.58;;;307.30;1996.80;;;;;;5089739;28;20140;-61
2021/04/18 09:09:57;;;;;;;28.08;18.75;;;307.30;1971.20;;;;;;5090949;28;20012;-62
2021/04/18 09:12:23;;;;;;;20.50;16.60;;;307.40;1971.20;;;;;;5090925;28;20024;-61
2021/04/18 09:14:50;;;;;;;22.02;15.50;;;307.30;1971.20;;;;;;5091455;28;20024;-62
2021/04/18 09:17:20;;;;;;;16.73;14.70;;;307.30;1945.60;;;;;;5091503;28;20032;-60
2021/04/18 09:19:59;;;;;;;18.58;15.68;;;307.30;1971.20;;;;;;5089859;28;20474;-61
2021/04/18 09:22:28;;;;;;;42.90;31.63;;;307.30;1971.20;;;;;;5090201;28;20032;-69
2021/04/18 09:25:14;;;;;;;76.82;49.45;;;307.30;1996.80;;;;;;5093833;28;20020;-64
2021/04/18 09:27:44;;;;;;;68.95;30.83;;;307.40;2099.20;;;;;;5093850;28;20031;-70
2021/04/18 09:30:21;;;;;;;39.83;21.27;;;307.40;2022.40;;;;;;5093808;28;20024;-65
2021/04/18 09:32:49;;;;;;;23.30;14.65;;;307.30;1971.20;;;;;;5093898;28;20028;-66
2021/04/18 09:35:17;;;;;;;20.88;16.30;;;307.20;1971.20;;;;;;5093853;28;20466;-64
2021/04/18 09:37:52;;;;;;;26.02;18.05;;;307.20;1971.20;;;;;;5095787;28;20047;-66
2021/04/18 09:40:19;;;;;;;323.30;38.65;;;307.20;1971.20;;;;;;5096473;28;20093;-63
2021/04/18 09:42:50;;;;;;;181.25;46.72;;;282.50;1945.60;;;;;;5097898;28;20020;-64
2021/04/18 09:45:16;;;;;;;66.72;26.77;;;307.20;1971.20;;;;;;5098213;28;20032;-64
2021/04/18 09:47:45;;;;;;;43.65;28.40;;;282.50;1945.60;;;;;;5098218;28;20104;-63
2021/04/18 09:50:18;;;;;;;114.05;77.90;;;282.40;1945.60;;;;;;5097722;28;20040;-62
2021/04/18 09:52:48;;;;;;;78.82;48.35;;;282.40;1945.60;;;;;;5096601;28;20111;-65
2021/04/18 09:55:24;;;;;;;56.70;34.72;;;282.50;1945.60;;;;;;5097446;28;20034;-64
2021/04/18 09:57:57;;;;;;;25.88;19.13;;;282.50;1945.60;;;;;;5097620;28;20065;-65
2021/04/18 10:00:25;;;;;;;49.67;20.50;;;282.50;1945.60;;;;;;5095124;28;20028;-63
2021/04/18 10:03:07;;;;;;;18.13;14.27;;;282.50;1996.80;;;;;;5094718;28;20028;-63
2021/04/18 10:05:43;;;;;;;56.80;41.58;;;282.50;1971.20;;;;;;5094194;28;20103;-62
2021/04/18 10:08:23;;;;;;;54.33;35.25;;;307.20;2022.40;;;;;;5096206;28;20012;-63
2021/04/18 10:11:05;;;;;;;25.65;21.92;;;307.20;1996.80;;;;;;5095797;28;20024;-64
2021/04/18 10:13:50;;;;;;;27.50;19.83;;;307.20;1996.80;;;;;;5094194;28;20106;-63
2021/04/18 10:16:18;;;;;;;20.27;17.17;;;282.50;1971.20;;;;;;5094128;28;20020;-63
2021/04/18 10:19:11;;;;;;;26.77;18.88;;;282.50;1971.20;;;;;;5096111;28;20031;-64
2021/04/18 10:21:38;;;;;;;20.50;16.17;;;282.40;1971.20;;;;;;5094038;28;20397;-64
2021/04/18 10:24:36;;;;;;;21.02;16.95;;;282.40;1971.20;;;;;;5092119;28;20483;-63
2021/04/18 10:27:05;;;;;;;18.58;16.15;;;282.40;1971.20;;;;;;5094561;28;20043;-64
2021/04/18 10:29:31;;;;;;;32.55;24.58;;;282.40;1971.20;;;;;;5095251;28;20032;-63
2021/04/18 10:31:57;;;;;;;77.82;45.75;;;282.40;1945.60;;;;;;5094779;28;20032;-65
2021/04/18 10:34:23;;;;;;;48.67;33.10;;;282.50;1971.20;;;;;;5095896;28;20024;-64
2021/04/18 10:36:49;;;;;;;47.22;26.60;;;307.20;2022.40;;;;;;5093249;28;20036;-64
2021/04/18 10:39:16;;;;;;;372.08;43.88;;;307.30;1971.20;;;;;;5090698;28;20040;-63
2021/04/18 10:41:46;;;;;;;134.60;24.73;;;307.40;1996.80;;;;;;5095941;28;20044;-64
2021/04/18 10:44:16;;;;;;;132.50;21.52;;;307.50;1971.20;;;;;;5096221;28;20541;-66
2021/04/18 10:46:59;;;;;;;40.25;13.82;;;307.60;1971.20;;;;;;5090875;28;20115;-64
2021/04/18 10:49:26;;;;;;;25.75;12.30;;;307.70;1971.20;;;;;;5094551;28;20122;-62
2021/04/18 10:51:52;;;;;;;37.40;14.95;;;307.70;1945.60;;;;;;5094860;28;20745;-69
2021/04/18 10:54:18;;;;;;;29.92;12.95;;;307.80;1971.20;;;;;;5094192;28;20030;-65
2021/04/18 10:56:45;;;;;;;11.90;9.35;;;307.90;1945.60;;;;;;5094829;28;20022;-64
2021/04/18 10:59:11;;;;;;;12.50;9.65;;;307.90;1894.40;;;;;;5093379;28;20477;-63
2021/04/18 11:01:37;;;;;;;11.32;9.18;;;307.80;1868.80;;;;;;5094520;28;20039;-67
2021/04/18 11:04:03;;;;;;;11.25;9.32;;;307.80;1894.40;;;;;;5093319;28;20480;-63
2021/04/18 11:06:29;;;;;;;37.92;14.50;;;307.70;1920.00;;;;;;5093304;28;20020;-61
2021/04/18 11:08:55;;;;;;;19.42;10.95;;;307.80;1920.00;;;;;;5093951;28;20051;-63
2021/04/18 11:11:23;;;;;;;14.75;9.27;;;307.80;1920.00;;;;;;5094436;28;20458;-62
2021/04/18 11:13:50;;;;;;;30.60;9.77;;;307.70;1920.00;;;;;;5094338;28;20016;-63
2021/04/18 11:16:15;;;;;;;9.85;6.97;;;307.70;1920.00;;;;;;5093110;28;20032;-61
2021/04/18 11:18:41;;;;;;;11.52;7.80;;;307.70;1920.00;;;;;;5092898;28;20374;-62
2021/04/18 11:21:07;;;;;;;22.33;13.43;;;307.70;1920.00;;;;;;5093185;28;20052;-64
2021/04/18 11:23:33;;;;;;;27.65;12.38;;;307.70;1920.00;;;;;;5091264;28;20027;-64
2021/04/18 11:25:58;;;;;;;26.73;16.88;;;307.70;1945.60;;;;;;5095548;28;20055;-64
2021/04/18 11:28:24;;;;;;;42.20;26.10;;;307.80;1971.20;;;;;;5095398;28;20441;-64
2021/04/18 11:30:50;;;;;;;46.13;26.25;;;307.80;1971.20;;;;;;5094749;28;20489;-64
2021/04/18 11:33:16;;;;;;;44.42;24.45;;;307.90;1945.60;;;;;;5095271;28;20161;-64
2021/04/18 11:35:42;;;;;;;25.65;16.45;;;307.90;1920.00;;;;;;5095528;28;20029;-63
2021/04/18 11:38:07;;;;;;;21.27;13.63;;;307.80;1894.40;;;;;;5095626;28;20039;-63
2021/04/18 11:40:35;;;;;;;42.83;26.10;;;307.80;1920.00;;;;;;5095456;28;20024;-63
2021/04/18 11:43:02;;;;;;;42.45;27.10;;;307.80;1920.00;;;;;;5095163;28;20032;-62
2021/04/18 11:45:27;;;;;;;39.70;22.42;;;307.80;1971.20;;;;;;5095183;28;20036;-63
2021/04/18 11:47:53;;;;;;;20.60;12.82;;;307.90;1920.00;;;;;;5095776;28;20134;-63
2021/04/18 11:50:20;;;;;;;18.88;13.60;;;307.80;1920.00;;;;;;5095221;28;20073;-63
2021/04/18 11:52:47;;;;;;;24.73;14.25;;;307.70;1920.00;;;;;;5093387;28;20453;-63
2021/04/18 11:55:15;;;;;;;19.38;13.25;;;307.70;1920.00;;;;;;5095352;28;20503;-63
2021/04/18 11:57:41;;;;;;;18.63;12.90;;;307.70;1945.60;;;;;;5095192;28;20520;-62
2021/04/18 12:00:20;;;;;;;14.50;12.23;;;307.60;1945.60;;;;;;5092894;28;20051;-62
2021/04/18 12:02:46;;;;;;;15.30;12.38;;;307.50;1945.60;;;;;;5092745;28;20032;-62